Relevés horaires Beauvechain (Belgique)


Relevés horaires à Beauvechain - Dimanche 07 Juin 2020
Heure UTC1 Température [°C] Vent [km/h] Hum. [%] Pres.4 [hPa] Visi. [Km] Nébu. [octa] Préc.5 [mm] Cond.
2m. Res. Ros. Dir.2 Vit. Moy. Raf.3
23:00 11.5 11.5 7.8 NO 3.7 -- 7.4 78 1013.2(0.8/3h) 20 -- -- --
22:00 12.1 12.1 7.8 NNO 3.7 -- 5.6 75 1013.2(1.5/3h) 20 -- -- --
21:00 12.6 12.6 8.1 NO 3.7 -- 11.1 74 1012.7(1.8/3h) 20 -- -- --
20:00 13.6 13.3 8.0 NNO 7.4 -- 11.1 69 1012.2(2.0/3h) 20 -- -- --
19:00 14.6 14.6 8.3 NNO 5.6 -- 11.1 66 1011.5(1.5/3h) 20 -- -- --
18:00 15.9 15.9 6.3 NO 3.7 -- 13.0 53 1010.7(1.1/3h) 20 -- -- --
17:00 17.0 17.0 6.6 O 3.7 -- 11.1 50 1010(0.8/3h) 20 -- -- --
16:00 17.0 17.0 6.3 OSO 5.6 -- 11.1 49 1009.7(0.6/3h) 20 -- -- --
15:00 16.8 16.8 5.7 SO 3.7 -- 13.0 48 1009.5(0.7/3h) 20 -- -- --
14:00 16.5 16.5 6.7 OSO 5.6 -- 11.1 52 1009.2(0.9/3h) 20 -- -- --
13:00 15.9 15.9 5.7 O 5.6 -- 13.0 51 1009.2(1.3/3h) 20 -- -- --
12:00 15.5 15.5 6.1 O 3.7 -- 16.7 53 1008.7(1.6/3h) 20 -- -- --
11:00 16.1 16.1 5.4 OSO 7.4 -- 16.7 49 1008.2(1.6/3h) 20 -- -- --
10:00 14.3 13.9 6.4 O 9.3 -- 14.8 59 1007.8(1.7/3h) 20 -- -- --
09:00 14.4 14 6.9 O 9.3 -- 16.7 61 1007.1(1.9/3h) 19 -- -- --
08:00 12.7 12 7.1 O 9.3 -- 14.8 69 1006.7(1.9/3h) 19 -- -- --
07:00 12.2 11.4 7.9 OSO 9.3 -- 16.7 75 1006.2(2.0/3h) 20 -- -- --
06:00 11.4 10.4 7.7 OSO 9.3 -- 18.5 78 1005.2(1.7/3h) 20 -- -- --
05:00 10.1 8.9 7.8 OSO 9.3 -- 13.0 86 1004.8(1.6/3h) 20 -- -- --
04:00 9.3 8.3 7.4 OSO 7.4 -- 14.8 88 1004.2(1.2/3h) 20 -- -- --
03:00 10.3 8.8 7.0 SO 11.1 -- 18.5 80 1003.5(0.6/3h) 20 -- -- --
02:00 10.5 9.1 6.1 SO 11.1 -- 18.5 74 1003.2(0.0/3h) 20 -- -- --
01:00 11.0 9.7 5.2 SO 11.1 -- 18.5 67 1002.7(-0.2/3h) 20 -- -- --
00:00 11.3 10.3 4.4 SO 9.3 -- 20.4 62 1002.7(-0.2/3h) 20 -- -- --

1 Coordinated Universal Time. Actuellement il est 17:00 locale et 15:00 UTC.

2 Le vent souffle depuis la direction indiquée vers la direction oposée.

3 Les rafales max. sont disponible 40 min après l'heure du relevé.

4 Pour les stations d'altitude (plus de 600m) le géopotentiel du niveau le plus proche de la pression obligatoire est indiqué.

5 Les stations disposant d'un diffuseur peuvent indiquer "trace". Cela signifie que des précipitations ont touchés le sol mais que la quantité est inférieure à 0.1 mm.

Récapitulatif de la journée
Température [°C] Vent [km/h] Ensoleillement4 [h] Precipitations totale5 [mm] Pression [Hpa]
Min1 Max.2 Moy.3 Max. Min Max.
9.2 17.8 0 20.4 0 h 0 min 0 1002.7 1013.2

1 Température minimale relevée entre 18:00 UTC la veille et 18:00 UTC le jour donné.

2 Température maximale relevée entre 06:00 UTC le jour donné et 06:00 UTC le lendemain.

3 Vent moyen de la journée basé sur les relevés horaires.

4 Ensoleillement en heures relevé entre 06:00 UTC la veille et 06:00 UTC le jour donné.

5 Précipitations totales tombées entre 06:00 UTC la jour donné et 06:00 UTC le lendemain.

Graphiques horaires